createdAt,value
2019-02-23T00:01:23.538Z,4.29
2019-02-23T00:03:50.381Z,4.05
2019-02-23T00:06:29.041Z,3.89
2019-02-23T00:08:46.164Z,3.97
2019-02-23T00:11:13.414Z,4.14
2019-02-23T00:13:40.116Z,4.32
2019-02-23T00:16:07.305Z,4.44
2019-02-23T00:18:34.619Z,4.46
2019-02-23T00:21:01.720Z,4.44
2019-02-23T00:23:28.461Z,4.49
2019-02-23T00:25:55.395Z,4.53
2019-02-23T00:28:22.133Z,4.55
2019-02-23T00:30:49.030Z,4.60
2019-02-23T00:33:15.973Z,4.56
2019-02-23T00:35:42.747Z,4.51
2019-02-23T00:38:13.319Z,4.44
2019-02-23T00:40:40.659Z,4.42
2019-02-23T00:43:07.388Z,4.26
2019-02-23T00:45:34.236Z,4.11
2019-02-23T00:48:01.009Z,4.06
2019-02-23T00:50:28.270Z,4.08
2019-02-23T00:52:55.359Z,4.16
2019-02-23T00:55:22.191Z,4.04
2019-02-23T00:57:49.051Z,3.98
2019-02-23T01:00:15.849Z,3.91
2019-02-23T01:02:43.200Z,4.03
2019-02-23T01:05:10.176Z,4.09
2019-02-23T01:07:37.330Z,4.10
2019-02-23T01:10:08.392Z,4.08
2019-02-23T01:12:35.291Z,4.16
2019-02-23T01:15:02.205Z,4.01
2019-02-23T01:17:29.091Z,4.05
2019-02-23T01:19:59.378Z,4.11
2019-02-23T01:22:27.309Z,4.13
2019-02-23T01:24:54.468Z,4.11
2019-02-23T01:27:21.698Z,4.11
2019-02-23T01:29:48.605Z,4.17
2019-02-23T01:32:15.436Z,4.15
2019-02-23T01:34:42.191Z,4.13
2019-02-23T01:37:10.850Z,4.09
2019-02-23T01:39:40.248Z,4.06
2019-02-23T01:42:07.019Z,4.06
2019-02-23T01:44:33.921Z,3.97
2019-02-23T01:47:01.011Z,3.95
2019-02-23T01:49:27.781Z,3.91
2019-02-23T01:51:54.939Z,3.89
2019-02-23T01:54:21.679Z,3.92
2019-02-23T01:56:49.246Z,3.88
2019-02-23T01:59:15.986Z,3.93
2019-02-23T02:01:43.303Z,3.89
2019-02-23T02:04:10.488Z,3.87
2019-02-23T02:06:37.260Z,3.84
2019-02-23T02:09:04.660Z,3.80
2019-02-23T02:11:31.895Z,3.90
2019-02-23T02:13:58.816Z,3.98
2019-02-23T02:16:26.043Z,4.04
2019-02-23T02:18:52.826Z,3.97
2019-02-23T02:21:19.995Z,3.98
2019-02-23T02:23:47.248Z,3.89
2019-02-23T02:26:14.281Z,3.81
2019-02-23T02:28:41.150Z,3.83
2019-02-23T02:31:09.041Z,3.84
2019-02-23T02:34:02.059Z,3.57
2019-02-23T02:36:28.883Z,3.59
2019-02-23T02:38:55.731Z,3.60
2019-02-23T02:41:22.570Z,3.62
2019-02-23T02:43:49.466Z,3.58
2019-02-23T02:46:16.218Z,3.62
2019-02-23T02:48:43.188Z,3.61
2019-02-23T02:51:09.954Z,3.47
2019-02-23T02:53:37.036Z,3.52
2019-02-23T02:56:03.910Z,3.42
2019-02-23T02:58:31.131Z,3.35
2019-02-23T03:00:58.249Z,3.25
2019-02-23T03:03:25.029Z,3.20
2019-02-23T03:05:51.930Z,3.15
2019-02-23T03:08:19.388Z,3.17
2019-02-23T03:10:46.214Z,3.13
2019-02-23T03:13:13.005Z,3.19
2019-02-23T03:15:40.537Z,3.32
2019-02-23T03:18:07.366Z,3.24
2019-02-23T03:20:36.832Z,3.26
2019-02-23T03:23:03.468Z,3.22
2019-02-23T03:25:30.274Z,3.23
2019-02-23T03:27:57.530Z,3.15
2019-02-23T03:30:27.325Z,3.12
2019-02-23T03:32:54.193Z,3.07
2019-02-23T03:35:21.738Z,3.05
2019-02-23T03:37:48.988Z,2.92
2019-02-23T03:40:15.809Z,2.75
2019-02-23T03:42:42.614Z,2.58
2019-02-23T03:45:09.386Z,2.46
2019-02-23T03:47:38.583Z,2.46
2019-02-23T03:50:06.901Z,2.46
2019-02-23T03:52:33.791Z,2.50
2019-02-23T03:55:00.552Z,2.58
2019-02-23T03:57:27.392Z,2.82
2019-02-23T03:59:54.305Z,2.87
2019-02-23T04:02:21.408Z,2.94
2019-02-23T04:04:50.097Z,2.99
2019-02-23T04:07:17.011Z,2.98
2019-02-23T04:09:44.257Z,2.98
2019-02-23T04:12:11.537Z,2.97
2019-02-23T04:14:38.686Z,2.87
2019-02-23T04:17:07.781Z,2.94
2019-02-23T04:19:35.346Z,3.04
2019-02-23T04:22:02.166Z,2.99
2019-02-23T04:24:29.069Z,2.95
2019-02-23T04:26:55.913Z,2.91
2019-02-23T04:29:23.111Z,2.92
2019-02-23T04:31:50.378Z,2.97
2019-02-23T04:34:17.315Z,2.93
2019-02-23T04:36:44.441Z,3.09
2019-02-23T04:39:11.240Z,3.10
2019-02-23T04:41:38.089Z,2.93
2019-02-23T04:44:04.893Z,2.82
2019-02-23T04:46:31.631Z,2.76
2019-02-23T04:48:58.457Z,2.77
2019-02-23T04:51:25.250Z,2.83
2019-02-23T04:53:52.047Z,2.76
2019-02-23T04:56:18.810Z,2.65
2019-02-23T04:58:47.622Z,2.68
2019-02-23T05:01:14.430Z,2.74
2019-02-23T05:03:41.598Z,2.82
2019-02-23T05:06:08.404Z,2.77
2019-02-23T05:08:35.565Z,2.75
2019-02-23T05:11:02.383Z,2.61
2019-02-23T05:13:29.150Z,2.55
2019-02-23T05:15:55.946Z,2.56
2019-02-23T05:18:22.804Z,2.58
2019-02-23T05:20:49.569Z,2.61
2019-02-23T05:23:17.235Z,2.61
2019-02-23T05:25:45.159Z,2.67
2019-02-23T05:28:12.500Z,2.66
2019-02-23T05:30:39.382Z,2.63
2019-02-23T05:33:06.165Z,2.67
2019-02-23T05:35:32.948Z,2.66
2019-02-23T05:37:59.717Z,2.59
2019-02-23T05:40:27.047Z,2.59
2019-02-23T05:43:00.906Z,2.60
2019-02-23T05:45:22.549Z,2.59
2019-02-23T05:47:49.688Z,2.44
2019-02-23T05:50:17.348Z,2.38
2019-02-23T05:52:44.323Z,2.36
2019-02-23T05:55:11.242Z,2.36
2019-02-23T05:57:38.223Z,2.48
2019-02-23T06:00:10.663Z,2.43
2019-02-23T06:02:37.802Z,2.42
2019-02-23T06:05:08.130Z,2.27
2019-02-23T06:07:34.902Z,2.34
2019-02-23T06:10:02.622Z,2.46
2019-02-23T06:12:29.394Z,2.48
2019-02-23T06:14:56.118Z,2.48
2019-02-23T06:17:22.878Z,2.36
2019-02-23T06:19:49.655Z,2.23
2019-02-23T06:22:16.730Z,2.15
2019-02-23T06:24:43.549Z,2.22
2019-02-23T06:27:10.434Z,2.26
2019-02-23T06:29:37.318Z,2.30
2019-02-23T06:32:04.454Z,2.33
2019-02-23T06:34:31.528Z,2.33
2019-02-23T06:36:58.444Z,2.30
2019-02-23T06:39:30.834Z,2.28
2019-02-23T06:41:58.847Z,2.22
2019-02-23T06:44:25.961Z,2.16
2019-02-23T06:46:52.949Z,2.22
2019-02-23T06:49:19.831Z,2.39
2019-02-23T06:51:46.681Z,2.40
2019-02-23T06:54:13.463Z,2.33
2019-02-23T06:56:40.577Z,2.36
2019-02-23T06:59:07.353Z,2.51
2019-02-23T07:01:36.729Z,2.61
2019-02-23T07:04:03.900Z,2.57
2019-02-23T07:06:30.761Z,2.56
2019-02-23T07:08:57.515Z,2.40
2019-02-23T07:11:24.382Z,2.33
2019-02-23T07:13:51.293Z,2.26
2019-02-23T07:16:18.450Z,2.13
2019-02-23T07:18:45.382Z,2.31
2019-02-23T07:21:12.301Z,2.43
2019-02-23T07:23:39.403Z,2.52
2019-02-23T07:26:06.323Z,2.48
2019-02-23T07:28:33.122Z,2.54
2019-02-23T07:30:59.982Z,2.69
2019-02-23T07:33:32.949Z,2.80
2019-02-23T07:35:55.675Z,2.90
2019-02-23T07:38:22.480Z,3.02
2019-02-23T07:40:49.295Z,3.19
2019-02-23T07:43:16.371Z,3.21
2019-02-23T07:45:43.482Z,3.47
2019-02-23T07:48:10.251Z,3.59
2019-02-23T07:50:37.112Z,3.70
2019-02-23T07:53:04.694Z,3.64
2019-02-23T07:55:31.831Z,3.69
2019-02-23T07:57:58.680Z,3.73
2019-02-23T08:00:25.951Z,3.71
2019-02-23T08:02:52.884Z,3.77
2019-02-23T08:05:19.776Z,3.85
2019-02-23T08:07:46.936Z,4.00
2019-02-23T08:10:14.418Z,4.06
2019-02-23T08:12:41.570Z,4.05
2019-02-23T08:15:10.621Z,4.22
2019-02-23T08:17:37.420Z,4.36
2019-02-23T08:20:08.736Z,4.60
2019-02-23T08:22:37.659Z,4.76
2019-02-23T08:25:08.749Z,4.75
2019-02-23T08:27:35.983Z,4.82
2019-02-23T08:30:10.618Z,4.80
2019-02-23T08:32:37.618Z,4.89
2019-02-23T08:35:06.422Z,5.19
2019-02-23T08:37:34.084Z,5.36
2019-02-23T08:40:01.327Z,5.61
2019-02-23T08:42:28.307Z,5.71
2019-02-23T08:44:55.315Z,5.84
2019-02-23T08:47:22.241Z,5.91
2019-02-23T08:49:49.052Z,6.17
2019-02-23T08:52:15.878Z,6.35
2019-02-23T08:54:43.199Z,6.70
2019-02-23T08:57:10.247Z,6.80
2019-02-23T08:59:37.135Z,7.01
2019-02-23T09:02:04.216Z,6.85
2019-02-23T09:04:30.980Z,6.82
2019-02-23T09:06:57.794Z,6.86
2019-02-23T09:09:24.545Z,6.82
2019-02-23T09:11:52.127Z,7.08
2019-02-23T09:14:19.044Z,7.34
2019-02-23T09:16:47.367Z,7.51
2019-02-23T09:19:14.181Z,7.80
2019-02-23T09:21:41.237Z,7.89
2019-02-23T09:24:08.095Z,7.61
2019-02-23T09:26:35.641Z,7.54
2019-02-23T09:29:02.552Z,7.68
2019-02-23T09:31:30.959Z,7.71
2019-02-23T09:33:58.346Z,8.05
2019-02-23T09:36:25.362Z,8.33
2019-02-23T09:38:52.705Z,8.32
2019-02-23T09:41:20.619Z,8.39
2019-02-23T09:43:47.508Z,8.57
2019-02-23T09:46:14.364Z,8.70
2019-02-23T09:48:41.176Z,8.90
2019-02-23T09:51:08.031Z,8.90
2019-02-23T09:53:35.242Z,8.96
2019-02-23T09:56:05.488Z,9.07
2019-02-23T09:58:33.476Z,9.10
2019-02-23T10:01:00.624Z,9.06
2019-02-23T10:03:29.013Z,9.51
2019-02-23T10:05:59.513Z,9.63
2019-02-23T10:08:26.283Z,9.76
2019-02-23T10:10:57.608Z,9.62
2019-02-23T10:13:24.853Z,9.54
2019-02-23T10:15:51.620Z,9.59
2019-02-23T10:18:18.390Z,9.88
2019-02-23T10:20:47.690Z,10.13
2019-02-23T10:23:21.462Z,10.01
2019-02-23T10:25:43.260Z,10.05
2019-02-23T10:28:10.174Z,10.08
2019-02-23T10:30:37.413Z,10.18
2019-02-23T10:33:04.249Z,10.37
2019-02-23T10:35:32.644Z,10.52
2019-02-23T10:37:59.480Z,10.61
2019-02-23T10:40:26.413Z,10.36
2019-02-23T10:42:53.170Z,10.55
2019-02-23T10:45:20.018Z,10.65
2019-02-23T10:47:50.355Z,10.78
2019-02-23T10:50:17.283Z,10.95
2019-02-23T10:52:44.202Z,10.82
2019-02-23T10:55:14.347Z,11.04
2019-02-23T10:57:41.153Z,11.03
2019-02-23T11:00:15.427Z,11.19
2019-02-23T11:02:42.484Z,11.28
2019-02-23T11:05:10.420Z,11.48
2019-02-23T11:07:37.335Z,11.60
2019-02-23T11:10:08.336Z,11.56
2019-02-23T11:12:35.321Z,11.42
2019-02-23T11:15:02.376Z,11.69
2019-02-23T11:17:29.360Z,12.07
2019-02-23T11:19:56.491Z,12.42
2019-02-23T11:22:23.708Z,12.52
2019-02-23T11:24:50.785Z,12.62
2019-02-23T11:27:17.855Z,12.64
2019-02-23T11:29:44.700Z,12.75
2019-02-23T11:32:12.311Z,12.97
2019-02-23T11:34:39.086Z,13.09
2019-02-23T11:37:11.872Z,12.98
2019-02-23T11:39:38.980Z,13.16
2019-02-23T11:42:06.279Z,13.59
2019-02-23T11:44:33.249Z,13.68
2019-02-23T11:47:00.481Z,14.09
2019-02-23T11:49:27.731Z,14.16
2019-02-23T11:51:54.587Z,14.53
2019-02-23T11:54:21.524Z,14.76
2019-02-23T11:56:48.398Z,15.29
2019-02-23T11:59:15.148Z,15.63
2019-02-23T12:01:41.929Z,16.14
2019-02-23T12:04:08.717Z,16.44
2019-02-23T12:06:35.914Z,17.03
2019-02-23T12:09:08.844Z,17.00
2019-02-23T12:11:35.682Z,17.20
2019-02-23T12:14:05.771Z,17.07
2019-02-23T12:16:32.588Z,16.78
2019-02-23T12:18:59.332Z,16.67
2019-02-23T12:21:26.651Z,16.92
2019-02-23T12:23:53.638Z,17.35
2019-02-23T12:26:21.948Z,17.34
2019-02-23T12:28:49.235Z,17.64
2019-02-23T12:31:16.037Z,17.86
2019-02-23T12:33:42.914Z,17.69
2019-02-23T12:36:10.021Z,17.79
2019-02-23T12:38:36.895Z,16.99
2019-02-23T12:41:03.715Z,16.84
2019-02-23T12:43:30.700Z,16.79
2019-02-23T12:45:57.624Z,17.12
2019-02-23T12:48:24.608Z,17.38
2019-02-23T12:50:51.759Z,18.07
2019-02-23T12:53:24.547Z,17.71
2019-02-23T12:55:52.105Z,17.71
2019-02-23T12:58:19.093Z,17.41
2019-02-23T13:00:46.019Z,17.57
2019-02-23T13:03:13.345Z,17.65
2019-02-23T13:05:43.039Z,17.50
2019-02-23T13:08:09.966Z,17.12
2019-02-23T13:10:41.377Z,16.36
2019-02-23T13:13:44.585Z,16.75
2019-02-23T13:16:23.731Z,16.65
2019-02-23T13:19:24.231Z,16.05
2019-02-23T13:22:12.201Z,16.69
2019-02-23T13:24:47.766Z,16.29
2019-02-23T13:27:23.354Z,16.75
2019-02-23T13:30:18.057Z,16.56
2019-02-23T13:33:17.809Z,16.83
2019-02-23T13:36:05.932Z,16.77
2019-02-23T13:38:55.766Z,16.84
2019-02-23T13:41:50.338Z,16.61
2019-02-23T13:44:38.644Z,16.27
2019-02-23T13:47:17.114Z,15.90
2019-02-23T13:50:04.557Z,15.65
2019-02-23T13:53:14.903Z,15.74
2019-02-23T13:56:19.942Z,15.54
2019-02-23T13:59:34.468Z,15.22
2019-02-23T14:02:22.306Z,14.67
2019-02-23T14:05:19.078Z,14.70
2019-02-23T14:08:29.994Z,14.77
2019-02-23T14:11:30.727Z,14.53
2019-02-23T14:14:27.298Z,14.03
2019-02-23T14:17:21.122Z,13.58
2019-02-23T14:20:02.619Z,13.43
2019-02-23T14:23:12.730Z,13.22
2019-02-23T14:26:08.984Z,13.30
2019-02-23T14:29:05.345Z,13.54
2019-02-23T14:32:03.874Z,13.49
2019-02-23T14:34:48.494Z,13.34
2019-02-23T14:37:29.009Z,13.40
2019-02-23T14:40:34.759Z,13.18
2019-02-23T14:43:25.135Z,12.97
2019-02-23T14:46:22.474Z,12.93
2019-02-23T14:49:16.544Z,12.75
2019-02-23T14:51:55.351Z,12.79
2019-02-23T14:54:36.786Z,12.70
2019-02-23T14:57:37.262Z,12.47
2019-02-23T15:00:29.353Z,12.54
2019-02-23T15:03:31.039Z,12.43
2019-02-23T15:06:12.672Z,12.30
2019-02-23T15:08:50.959Z,12.19
2019-02-23T15:11:51.038Z,12.07
2019-02-23T15:14:33.588Z,11.94
2019-02-23T15:17:29.590Z,11.85
2019-02-23T15:20:28.580Z,11.75
2019-02-23T15:23:24.638Z,11.76
2019-02-23T15:26:46.418Z,11.63
2019-02-23T15:29:45.867Z,11.73
2019-02-23T15:32:41.838Z,11.76
2019-02-23T15:35:53.686Z,11.63
2019-02-23T15:39:08.500Z,11.53
2019-02-23T15:42:01.367Z,11.43
2019-02-23T15:44:54.889Z,11.31
2019-02-23T15:47:43.118Z,11.21
2019-02-23T15:50:13.624Z,11.27
2019-02-23T15:52:42.122Z,11.20
2019-02-23T15:55:10.181Z,11.04
2019-02-23T15:57:38.379Z,11.04
2019-02-23T16:00:07.608Z,11.03
2019-02-23T16:02:35.877Z,10.94
2019-02-23T16:05:02.828Z,10.87
2019-02-23T16:07:30.145Z,10.77
2019-02-23T16:09:57.016Z,10.68
2019-02-23T16:12:24.621Z,10.68
2019-02-23T16:14:51.700Z,10.63
2019-02-23T16:17:18.589Z,10.59
2019-02-23T16:19:45.588Z,10.51
2019-02-23T16:22:13.199Z,10.35
2019-02-23T16:24:40.665Z,10.30
2019-02-23T16:27:08.125Z,10.29
2019-02-23T16:29:39.758Z,10.24
2019-02-23T16:32:04.576Z,10.17
2019-02-23T16:34:31.312Z,10.10
2019-02-23T16:36:58.103Z,10.10
2019-02-23T16:39:24.963Z,10.11
2019-02-23T16:41:51.863Z,10.05
2019-02-23T16:44:19.043Z,9.95
2019-02-23T16:46:46.636Z,9.96
2019-02-23T16:49:14.194Z,9.78
2019-02-23T16:51:41.299Z,9.74
2019-02-23T16:54:08.266Z,9.65
2019-02-23T16:56:36.811Z,9.54
2019-02-23T16:59:04.369Z,9.47
2019-02-23T17:01:32.299Z,9.51
2019-02-23T17:03:59.722Z,9.48
2019-02-23T17:06:26.470Z,9.43
2019-02-23T17:08:54.178Z,9.35
2019-02-23T17:11:22.766Z,9.31
2019-02-23T17:13:53.064Z,9.31
2019-02-23T17:16:20.251Z,9.33
2019-02-23T17:18:49.262Z,9.24
2019-02-23T17:21:17.564Z,9.12
2019-02-23T17:23:45.397Z,9.03
2019-02-23T17:26:12.694Z,9.02
2019-02-23T17:28:40.145Z,8.98
2019-02-23T17:31:07.176Z,8.94
2019-02-23T17:33:34.190Z,8.97
2019-02-23T17:36:01.717Z,8.96
2019-02-23T17:38:30.430Z,8.93
2019-02-23T17:40:57.630Z,8.81
2019-02-23T17:43:25.591Z,8.77
2019-02-23T17:45:53.034Z,8.76
2019-02-23T17:48:19.789Z,8.84
2019-02-23T17:50:50.711Z,8.80
2019-02-23T17:53:17.734Z,8.69
2019-02-23T17:55:46.724Z,8.63
2019-02-23T17:58:14.993Z,8.59
2019-02-23T18:00:43.290Z,8.52
2019-02-23T18:03:12.406Z,8.44
2019-02-23T18:05:39.754Z,8.46
2019-02-23T18:08:09.244Z,8.36
2019-02-23T18:10:37.457Z,8.27
2019-02-23T18:13:04.350Z,8.23
2019-02-23T18:15:32.058Z,8.17
2019-02-23T18:17:59.455Z,8.20
2019-02-23T18:20:26.589Z,8.19
2019-02-23T18:22:54.337Z,8.17
2019-02-23T18:25:23.244Z,8.19
2019-02-23T18:27:50.026Z,8.17
2019-02-23T18:30:16.792Z,8.08
2019-02-23T18:32:43.560Z,8.08
2019-02-23T18:35:11.881Z,8.15
2019-02-23T18:37:38.950Z,8.12
2019-02-23T18:40:07.133Z,8.07
2019-02-23T18:42:34.465Z,8.05
2019-02-23T18:45:02.061Z,8.12
2019-02-23T18:47:29.956Z,8.10
2019-02-23T18:49:57.443Z,7.89
2019-02-23T18:52:24.743Z,7.79
2019-02-23T18:54:52.314Z,7.81
2019-02-23T18:57:20.708Z,7.83
2019-02-23T18:59:48.164Z,7.83
2019-02-23T19:02:15.750Z,7.76
2019-02-23T19:04:42.545Z,7.70
2019-02-23T19:07:09.870Z,7.74
2019-02-23T19:09:36.594Z,7.67
2019-02-23T19:12:04.057Z,7.61
2019-02-23T19:14:31.159Z,7.67
2019-02-23T19:16:58.720Z,7.65
2019-02-23T19:19:27.635Z,7.51
2019-02-23T19:21:55.378Z,7.44
2019-02-23T19:24:24.341Z,7.50
2019-02-23T19:26:53.590Z,7.51
2019-02-23T19:29:22.689Z,7.53
2019-02-23T19:31:50.353Z,7.45
2019-02-23T19:34:17.292Z,7.41
2019-02-23T19:36:44.459Z,7.36
2019-02-23T19:39:13.095Z,7.37
2019-02-23T19:41:45.891Z,7.29
2019-02-23T19:44:13.419Z,7.17
2019-02-23T19:46:46.259Z,7.06
2019-02-23T19:49:13.525Z,7.00
2019-02-23T19:51:40.723Z,7.01
2019-02-23T19:54:07.701Z,7.04
2019-02-23T19:56:34.578Z,7.09
2019-02-23T19:59:02.003Z,7.08
2019-02-23T20:01:29.222Z,7.06
2019-02-23T20:03:56.043Z,7.06
2019-02-23T20:06:23.229Z,7.00
2019-02-23T20:08:51.093Z,6.91
2019-02-23T20:11:18.264Z,6.84
2019-02-23T20:13:45.320Z,6.81
2019-02-23T20:16:12.181Z,6.78
2019-02-23T20:18:39.179Z,6.75
2019-02-23T20:21:06.095Z,6.79
2019-02-23T20:23:33.347Z,6.74
2019-02-23T20:26:02.547Z,6.71
2019-02-23T20:28:29.543Z,6.66
2019-02-23T20:30:57.120Z,6.60
2019-02-23T20:33:25.312Z,6.50
2019-02-23T20:35:56.500Z,6.42
2019-02-23T20:38:23.650Z,6.41
2019-02-23T20:40:51.265Z,6.38
2019-02-23T20:43:19.239Z,6.36
2019-02-23T20:45:46.515Z,6.31
2019-02-23T20:48:13.794Z,6.31
2019-02-23T20:50:41.526Z,6.27
2019-02-23T20:53:10.068Z,6.14
2019-02-23T20:55:39.161Z,6.00
2019-02-23T20:58:08.617Z,5.99
2019-02-23T21:00:35.553Z,6.13
2019-02-23T21:03:06.112Z,6.12
2019-02-23T21:05:33.539Z,6.16
2019-02-23T21:08:03.823Z,6.08
2019-02-23T21:10:31.219Z,6.00
2019-02-23T21:12:58.274Z,5.94
2019-02-23T21:15:25.198Z,5.95
2019-02-23T21:17:52.488Z,5.92
2019-02-23T21:20:20.092Z,5.80
2019-02-23T21:22:47.156Z,5.66
2019-02-23T21:25:14.109Z,5.50
2019-02-23T21:27:41.157Z,5.47
2019-02-23T21:30:09.668Z,5.51
2019-02-23T21:32:36.793Z,5.58
2019-02-23T21:35:09.984Z,5.62
2019-02-23T21:37:37.072Z,5.51
2019-02-23T21:40:08.350Z,5.52
2019-02-23T21:42:35.115Z,5.49
2019-02-23T21:45:03.945Z,5.50
2019-02-23T21:47:30.842Z,5.58
2019-02-23T21:49:58.217Z,5.56
2019-02-23T21:52:25.060Z,5.49
2019-02-23T21:54:52.176Z,5.49
2019-02-23T21:57:24.823Z,5.47
2019-02-23T21:59:52.226Z,5.39
2019-02-23T22:02:19.180Z,5.37
2019-02-23T22:04:46.416Z,5.43
2019-02-23T22:07:13.331Z,5.43
2019-02-23T22:09:41.659Z,5.36
2019-02-23T22:12:08.471Z,5.35
2019-02-23T22:14:35.245Z,5.23
2019-02-23T22:17:04.566Z,5.22
2019-02-23T22:19:31.676Z,5.18
2019-02-23T22:21:58.945Z,5.19
2019-02-23T22:24:25.857Z,5.21
2019-02-23T22:26:53.066Z,5.07
2019-02-23T22:29:19.938Z,4.99
2019-02-23T22:31:47.207Z,5.09
2019-02-23T22:34:14.192Z,5.06
2019-02-23T22:36:40.994Z,4.94
2019-02-23T22:39:08.429Z,4.88
2019-02-23T22:41:35.318Z,4.94
2019-02-23T22:44:02.507Z,4.94
2019-02-23T22:46:30.002Z,4.95
2019-02-23T22:48:57.261Z,4.83
2019-02-23T22:51:24.430Z,4.78
2019-02-23T22:53:51.292Z,4.81
2019-02-23T22:56:19.438Z,4.78
2019-02-23T22:58:46.413Z,4.66
2019-02-23T23:01:13.488Z,4.61
2019-02-23T23:03:40.793Z,4.48
2019-02-23T23:06:08.361Z,4.46
2019-02-23T23:08:35.231Z,4.47
2019-02-23T23:11:02.042Z,4.36
2019-02-23T23:13:28.813Z,4.31
2019-02-23T23:15:56.176Z,4.33
2019-02-23T23:18:23.110Z,4.38
2019-02-23T23:20:49.845Z,4.26
2019-02-23T23:23:16.611Z,4.22
2019-02-23T23:25:43.464Z,4.22
2019-02-23T23:28:11.396Z,4.18
2019-02-23T23:30:39.103Z,4.09
2019-02-23T23:33:05.947Z,4.03
2019-02-23T23:35:32.847Z,3.99
2019-02-23T23:37:59.675Z,3.99
2019-02-23T23:40:26.466Z,4.03
2019-02-23T23:42:58.142Z,4.08
2019-02-23T23:45:22.220Z,4.06
2019-02-23T23:47:49.941Z,3.98
2019-02-23T23:50:16.777Z,4.00
2019-02-23T23:52:43.626Z,4.07
2019-02-23T23:55:11.626Z,4.03
2019-02-23T23:57:38.959Z,3.99
